createdAt,value
2023-07-29T00:00:14.260Z,19.25
2023-07-29T00:01:17.645Z,19.32
2023-07-29T00:02:20.557Z,19.35
2023-07-29T00:03:23.623Z,19.37
2023-07-29T00:04:26.919Z,19.35
2023-07-29T00:05:29.656Z,19.37
2023-07-29T00:06:32.466Z,19.36
2023-07-29T00:07:35.274Z,19.36
2023-07-29T00:08:38.038Z,19.37
2023-07-29T00:09:40.832Z,19.41
2023-07-29T00:10:43.619Z,19.38
2023-07-29T00:11:46.390Z,19.35
2023-07-29T00:12:49.122Z,19.34
2023-07-29T00:13:52.220Z,19.35
2023-07-29T00:14:54.996Z,19.35
2023-07-29T00:15:57.965Z,19.39
2023-07-29T00:17:00.721Z,19.38
2023-07-29T00:18:03.805Z,19.31
2023-07-29T00:19:06.669Z,19.37
2023-07-29T00:20:09.656Z,19.36
2023-07-29T00:21:12.509Z,19.37
2023-07-29T00:22:15.249Z,19.37
2023-07-29T00:23:20.415Z,19.32
2023-07-29T00:24:23.069Z,19.33
2023-07-29T00:25:25.764Z,19.32
2023-07-29T00:26:30.350Z,19.32
2023-07-29T00:27:33.089Z,19.23
2023-07-29T00:28:35.998Z,19.21
2023-07-29T00:29:38.782Z,19.20
2023-07-29T00:30:41.552Z,19.18
2023-07-29T00:31:44.437Z,19.19
2023-07-29T00:32:47.219Z,19.17
2023-07-29T00:33:50.024Z,19.18
2023-07-29T00:34:52.783Z,19.17
2023-07-29T00:35:55.836Z,19.22
2023-07-29T00:36:58.890Z,19.19
2023-07-29T00:38:01.757Z,19.13
2023-07-29T00:39:04.621Z,19.17
2023-07-29T00:40:17.512Z,19.17
2023-07-29T00:41:22.709Z,19.07
2023-07-29T00:42:26.000Z,19.09
2023-07-29T00:43:28.709Z,19.03
2023-07-29T00:44:33.058Z,19.01
2023-07-29T00:45:36.425Z,19.06
2023-07-29T00:46:39.850Z,19.03
2023-07-29T00:47:43.678Z,19.04
2023-07-29T00:48:46.681Z,19.05
2023-07-29T00:49:49.677Z,19.02
2023-07-29T00:50:52.688Z,19.01
2023-07-29T00:51:56.135Z,18.99
2023-07-29T00:52:59.182Z,18.96
2023-07-29T00:54:01.929Z,19.00
2023-07-29T00:55:06.143Z,18.94
2023-07-29T00:56:08.923Z,18.93
2023-07-29T00:57:15.338Z,18.96
2023-07-29T00:58:18.319Z,18.89
2023-07-29T00:59:21.080Z,18.87
2023-07-29T01:00:23.929Z,18.77
2023-07-29T01:01:26.846Z,18.69
2023-07-29T01:02:31.136Z,18.67
2023-07-29T01:03:34.493Z,18.64
2023-07-29T01:04:37.371Z,18.59
2023-07-29T01:05:57.364Z,18.58
2023-07-29T01:07:15.167Z,18.55
2023-07-29T01:08:38.779Z,18.51
2023-07-29T01:10:04.165Z,18.57
2023-07-29T01:11:43.040Z,18.56
2023-07-29T01:12:52.115Z,18.63
2023-07-29T01:14:02.829Z,18.61
2023-07-29T01:15:20.639Z,18.60
2023-07-29T01:16:39.354Z,18.55
2023-07-29T01:17:54.094Z,18.57
2023-07-29T01:18:57.178Z,18.55
2023-07-29T01:20:09.014Z,18.55
2023-07-29T01:21:14.290Z,18.45
2023-07-29T01:22:17.951Z,18.46
2023-07-29T01:23:35.175Z,18.41
2023-07-29T01:24:37.930Z,18.39
2023-07-29T01:25:40.760Z,18.35
2023-07-29T01:26:43.525Z,18.42
2023-07-29T01:27:48.400Z,18.41
2023-07-29T01:28:51.171Z,18.38
2023-07-29T01:29:55.780Z,18.38
2023-07-29T01:31:11.809Z,18.38
2023-07-29T01:32:33.918Z,18.39
2023-07-29T01:33:44.041Z,18.39
2023-07-29T01:34:55.220Z,18.32
2023-07-29T01:36:25.858Z,18.36
2023-07-29T01:37:34.186Z,18.37
2023-07-29T01:38:39.669Z,18.41
2023-07-29T01:39:45.803Z,18.40
2023-07-29T01:40:50.547Z,18.38
2023-07-29T01:41:53.441Z,18.33
2023-07-29T01:42:56.859Z,18.36
2023-07-29T01:44:00.283Z,18.33
2023-07-29T01:45:03.423Z,18.32
2023-07-29T01:46:06.261Z,18.37
2023-07-29T01:47:09.039Z,18.38
2023-07-29T01:48:11.908Z,18.40
2023-07-29T01:49:14.776Z,18.41
2023-07-29T01:50:17.350Z,18.37
2023-07-29T01:51:20.139Z,18.40
2023-07-29T01:52:22.970Z,18.40
2023-07-29T01:53:25.717Z,18.47
2023-07-29T01:54:28.620Z,18.47
2023-07-29T01:55:31.519Z,18.45
2023-07-29T01:56:34.712Z,18.48
2023-07-29T01:57:37.738Z,18.46
2023-07-29T01:58:40.574Z,18.46
2023-07-29T01:59:43.619Z,18.38
2023-07-29T02:00:46.461Z,18.37
2023-07-29T02:01:50.155Z,18.39
2023-07-29T02:02:52.902Z,18.40
2023-07-29T02:03:58.522Z,18.44
2023-07-29T02:05:01.327Z,18.44
2023-07-29T02:06:04.144Z,18.43
2023-07-29T02:07:07.000Z,18.40
2023-07-29T02:08:09.809Z,18.45
2023-07-29T02:09:12.678Z,18.45
2023-07-29T02:10:15.787Z,18.42
2023-07-29T02:11:18.523Z,18.40
2023-07-29T02:12:21.363Z,18.36
2023-07-29T02:13:24.101Z,18.34
2023-07-29T02:14:26.833Z,18.34
2023-07-29T02:15:29.833Z,18.39
2023-07-29T02:16:34.307Z,18.40
2023-07-29T02:17:37.977Z,18.36
2023-07-29T02:18:40.792Z,18.31
2023-07-29T02:19:43.646Z,18.33
2023-07-29T02:20:50.720Z,18.35
2023-07-29T02:21:53.693Z,18.29
2023-07-29T02:22:56.346Z,18.24
2023-07-29T02:23:59.017Z,18.18
2023-07-29T02:25:02.298Z,18.16
2023-07-29T02:26:05.034Z,18.17
2023-07-29T02:27:08.116Z,18.16
2023-07-29T02:28:10.918Z,18.21
2023-07-29T02:29:13.832Z,18.22
2023-07-29T02:30:16.828Z,18.23
2023-07-29T02:31:23.263Z,18.27
2023-07-29T02:32:26.518Z,18.28
2023-07-29T02:33:29.338Z,18.35
2023-07-29T02:34:32.191Z,18.31
2023-07-29T02:35:34.928Z,18.30
2023-07-29T02:36:37.843Z,18.31
2023-07-29T02:37:40.773Z,18.32
2023-07-29T02:38:44.053Z,18.29
2023-07-29T02:39:46.958Z,18.33
2023-07-29T02:40:49.679Z,18.32
2023-07-29T02:41:52.721Z,18.33
2023-07-29T02:42:55.348Z,18.18
2023-07-29T02:43:58.025Z,18.13
2023-07-29T02:45:00.792Z,18.11
2023-07-29T02:46:04.257Z,18.16
2023-07-29T02:47:06.935Z,18.15
2023-07-29T02:48:09.830Z,18.09
2023-07-29T02:49:12.665Z,18.11
2023-07-29T02:50:15.746Z,18.11
2023-07-29T02:51:18.498Z,18.08
2023-07-29T02:52:21.399Z,18.08
2023-07-29T02:53:24.518Z,18.09
2023-07-29T02:54:27.293Z,18.06
2023-07-29T02:55:30.068Z,18.00
2023-07-29T02:56:32.892Z,18.04
2023-07-29T02:57:35.728Z,18.03
2023-07-29T02:58:38.865Z,18.01
2023-07-29T02:59:41.681Z,17.99
2023-07-29T03:00:44.830Z,18.01
2023-07-29T03:01:48.135Z,18.07
2023-07-29T03:02:51.962Z,18.11
2023-07-29T03:03:55.080Z,18.04
2023-07-29T03:04:57.985Z,18.03
2023-07-29T03:06:04.872Z,18.01
2023-07-29T03:07:07.653Z,18.03
2023-07-29T03:08:10.379Z,18.00
2023-07-29T03:09:12.988Z,17.95
2023-07-29T03:10:16.331Z,18.00
2023-07-29T03:11:18.973Z,17.96
2023-07-29T03:12:22.842Z,17.95
2023-07-29T03:13:25.998Z,17.93
2023-07-29T03:14:29.044Z,17.92
2023-07-29T03:15:31.813Z,17.98
2023-07-29T03:16:34.897Z,18.03
2023-07-29T03:17:37.920Z,18.07
2023-07-29T03:18:41.621Z,18.06
2023-07-29T03:19:44.350Z,18.06
2023-07-29T03:20:47.061Z,18.05
2023-07-29T03:21:50.818Z,18.03
2023-07-29T03:22:53.419Z,18.05
2023-07-29T03:23:56.127Z,18.07
2023-07-29T03:24:58.824Z,18.03
2023-07-29T03:26:05.480Z,18.04
2023-07-29T03:27:09.319Z,18.09
2023-07-29T03:28:12.036Z,18.07
2023-07-29T03:29:14.740Z,18.13
2023-07-29T03:30:22.285Z,18.14
2023-07-29T03:31:24.982Z,18.10
2023-07-29T03:32:27.737Z,18.10
2023-07-29T03:33:30.827Z,18.09
2023-07-29T03:34:33.990Z,18.06
2023-07-29T03:35:36.879Z,18.06
2023-07-29T03:36:39.661Z,18.05
2023-07-29T03:37:43.163Z,18.02
2023-07-29T03:38:46.139Z,18.03
2023-07-29T03:39:49.426Z,17.98
2023-07-29T03:40:52.268Z,17.97
2023-07-29T03:41:54.945Z,17.94
2023-07-29T03:42:57.611Z,17.98
2023-07-29T03:44:00.246Z,17.97
2023-07-29T03:45:03.215Z,18.00
2023-07-29T03:46:08.353Z,18.07
2023-07-29T03:47:12.674Z,18.07
2023-07-29T03:48:15.501Z,18.05
2023-07-29T03:49:18.249Z,18.05
2023-07-29T03:50:21.085Z,18.03
2023-07-29T03:51:25.009Z,18.02
2023-07-29T03:52:27.641Z,18.04
2023-07-29T03:53:30.172Z,18.04
2023-07-29T03:54:32.782Z,18.05
2023-07-29T03:55:35.685Z,18.03
2023-07-29T03:56:39.669Z,17.96
2023-07-29T03:57:42.774Z,18.03
2023-07-29T03:58:47.917Z,18.10
2023-07-29T03:59:50.766Z,18.05
2023-07-29T04:00:53.557Z,18.04
2023-07-29T04:01:56.570Z,18.01
2023-07-29T04:02:59.507Z,18.03
2023-07-29T04:04:02.309Z,18.09
2023-07-29T04:05:06.398Z,18.09
2023-07-29T04:06:10.281Z,18.09
2023-07-29T04:07:13.029Z,18.17
2023-07-29T04:08:15.840Z,18.12
2023-07-29T04:09:18.725Z,18.09
2023-07-29T04:10:21.651Z,18.11
2023-07-29T04:11:24.855Z,18.09
2023-07-29T04:13:30.759Z,18.24
2023-07-29T04:14:33.423Z,18.21
2023-07-29T04:15:36.230Z,18.24
2023-07-29T04:16:39.144Z,18.21
2023-07-29T04:17:42.240Z,18.19
2023-07-29T04:18:45.039Z,18.14
2023-07-29T04:19:47.966Z,18.11
2023-07-29T04:20:50.797Z,18.19
2023-07-29T04:21:53.535Z,18.15
2023-07-29T04:22:56.412Z,18.22
2023-07-29T04:23:59.117Z,18.25
2023-07-29T04:25:01.871Z,18.27
2023-07-29T04:26:04.665Z,18.31
2023-07-29T04:27:07.591Z,18.38
2023-07-29T04:28:10.356Z,18.44
2023-07-29T04:29:13.245Z,18.48
2023-07-29T04:30:16.221Z,18.54
2023-07-29T04:31:19.005Z,18.59
2023-07-29T04:32:21.886Z,18.62
2023-07-29T04:33:24.670Z,18.67
2023-07-29T04:34:27.399Z,18.73
2023-07-29T04:35:30.348Z,18.80
2023-07-29T04:36:33.209Z,18.86
2023-07-29T04:37:36.071Z,18.87
2023-07-29T04:38:39.059Z,18.89
2023-07-29T04:39:41.866Z,18.91
2023-07-29T04:40:44.795Z,18.95
2023-07-29T04:41:47.460Z,18.98
2023-07-29T04:42:50.650Z,18.98
2023-07-29T04:43:53.995Z,18.96
2023-07-29T04:44:56.739Z,19.02
2023-07-29T04:45:59.573Z,19.12
2023-07-29T04:47:02.342Z,19.07
2023-07-29T04:48:05.407Z,19.05
2023-07-29T04:49:08.253Z,19.02
2023-07-29T04:50:11.350Z,19.02
2023-07-29T04:51:13.989Z,19.02
2023-07-29T04:52:16.778Z,19.04
2023-07-29T04:53:19.477Z,19.06
2023-07-29T04:54:22.716Z,19.12
2023-07-29T04:55:25.530Z,19.15
2023-07-29T04:56:28.319Z,19.22
2023-07-29T04:57:31.123Z,19.27
2023-07-29T04:58:36.564Z,19.31
2023-07-29T04:59:39.276Z,19.37
2023-07-29T05:00:42.073Z,19.43
2023-07-29T05:01:44.988Z,19.48
2023-07-29T05:02:48.153Z,19.56
2023-07-29T05:03:50.829Z,19.66
2023-07-29T05:04:53.650Z,19.74
2023-07-29T05:05:57.440Z,19.82
2023-07-29T05:07:00.245Z,19.89
2023-07-29T05:08:02.968Z,19.95
2023-07-29T05:09:16.856Z,20.03
2023-07-29T05:10:19.856Z,20.16
2023-07-29T05:11:23.572Z,20.29
2023-07-29T05:12:26.344Z,20.36
2023-07-29T05:13:29.474Z,20.43
2023-07-29T05:14:32.264Z,20.53
2023-07-29T05:15:35.227Z,20.63
2023-07-29T05:16:38.243Z,20.72
2023-07-29T05:17:41.522Z,20.77
2023-07-29T05:18:44.419Z,20.83
2023-07-29T05:19:47.157Z,20.88
2023-07-29T05:20:50.007Z,20.95
2023-07-29T05:21:52.663Z,21.01
2023-07-29T05:22:55.427Z,21.07
2023-07-29T05:23:58.166Z,21.16
2023-07-29T05:25:01.009Z,21.25
2023-07-29T05:26:03.759Z,21.30
2023-07-29T05:27:07.160Z,21.38
2023-07-29T05:28:10.079Z,21.50
2023-07-29T05:29:12.891Z,21.61
2023-07-29T05:30:15.843Z,21.69
2023-07-29T05:31:19.154Z,21.77
2023-07-29T05:32:21.967Z,21.83
2023-07-29T05:33:24.830Z,21.90
2023-07-29T05:34:28.127Z,21.94
2023-07-29T05:35:30.741Z,21.96
2023-07-29T05:36:33.373Z,21.98
2023-07-29T05:37:36.345Z,22.02
2023-07-29T05:38:39.192Z,22.02
2023-07-29T05:39:41.983Z,22.06
2023-07-29T05:40:44.895Z,22.04
2023-07-29T05:41:48.566Z,22.02
2023-07-29T05:42:51.302Z,22.03
2023-07-29T05:43:54.088Z,22.07
2023-07-29T05:44:56.849Z,22.07
2023-07-29T05:45:59.607Z,22.14
2023-07-29T05:47:02.217Z,22.19
2023-07-29T05:48:05.283Z,22.28
2023-07-29T05:49:08.031Z,22.31
2023-07-29T05:50:11.006Z,22.33
2023-07-29T05:51:13.781Z,22.33
2023-07-29T05:52:16.716Z,22.29
2023-07-29T05:53:19.594Z,22.34
2023-07-29T05:54:22.415Z,22.35
2023-07-29T05:55:25.540Z,22.33
2023-07-29T05:56:28.289Z,22.37
2023-07-29T05:57:31.098Z,22.32
2023-07-29T05:58:33.800Z,22.32
2023-07-29T05:59:36.738Z,22.36
2023-07-29T06:00:39.888Z,22.36
2023-07-29T06:01:42.572Z,22.35
2023-07-29T06:02:45.432Z,22.35
2023-07-29T06:03:49.028Z,22.29
2023-07-29T06:04:52.010Z,22.29
2023-07-29T06:05:55.607Z,22.31
2023-07-29T06:06:58.402Z,22.33
2023-07-29T06:08:01.554Z,22.31
2023-07-29T06:09:04.268Z,22.29
2023-07-29T06:10:07.265Z,22.29
2023-07-29T06:11:09.883Z,22.25
2023-07-29T06:12:12.564Z,22.23
2023-07-29T06:13:15.204Z,22.21
2023-07-29T06:14:18.384Z,22.18
2023-07-29T06:15:24.095Z,22.13
2023-07-29T06:16:27.127Z,22.13
2023-07-29T06:17:30.162Z,22.02
2023-07-29T06:18:32.913Z,22.05
2023-07-29T06:19:35.636Z,22.06
2023-07-29T06:20:38.564Z,22.14
2023-07-29T06:21:41.237Z,22.20
2023-07-29T06:22:44.479Z,22.26
2023-07-29T06:23:48.038Z,22.37
2023-07-29T06:24:51.008Z,22.49
2023-07-29T06:25:53.769Z,22.62
2023-07-29T06:26:56.420Z,22.69
2023-07-29T06:27:59.717Z,22.79
2023-07-29T06:29:02.521Z,22.90
2023-07-29T06:30:05.792Z,23.00
2023-07-29T06:31:08.658Z,23.16
2023-07-29T06:32:11.813Z,23.31
2023-07-29T06:33:14.505Z,23.37
2023-07-29T06:34:17.258Z,23.50
2023-07-29T06:35:21.016Z,23.64
2023-07-29T06:36:23.893Z,23.70
2023-07-29T06:37:27.291Z,23.82
2023-07-29T06:38:30.121Z,23.91
2023-07-29T06:39:32.907Z,23.96
2023-07-29T06:40:35.689Z,24.07
2023-07-29T06:41:38.423Z,24.11
2023-07-29T06:42:41.196Z,23.99
2023-07-29T06:43:43.766Z,24.17
2023-07-29T06:44:49.153Z,24.40
2023-07-29T06:45:52.758Z,24.44
2023-07-29T06:46:55.465Z,24.39
2023-07-29T06:47:58.268Z,24.29
2023-07-29T06:49:01.035Z,24.25
2023-07-29T06:50:03.890Z,24.21
2023-07-29T06:51:06.766Z,24.22
2023-07-29T06:52:09.702Z,24.19
2023-07-29T06:53:13.073Z,24.19
2023-07-29T06:54:18.295Z,24.24
2023-07-29T06:55:20.993Z,24.33
2023-07-29T06:56:23.652Z,24.42
2023-07-29T06:57:26.490Z,24.54
2023-07-29T06:58:29.288Z,24.64
2023-07-29T06:59:32.374Z,24.59
2023-07-29T07:00:35.145Z,24.66
2023-07-29T07:01:38.128Z,24.64
2023-07-29T07:02:40.973Z,24.80
2023-07-29T07:03:45.474Z,24.85
2023-07-29T07:04:48.261Z,24.96
2023-07-29T07:05:52.089Z,25.06
2023-07-29T07:06:54.801Z,25.13
2023-07-29T07:07:57.381Z,25.24
2023-07-29T07:09:00.256Z,25.36
2023-07-29T07:10:02.970Z,25.45
2023-07-29T07:11:05.698Z,25.54
2023-07-29T07:12:09.294Z,25.56
2023-07-29T07:13:12.063Z,25.47
2023-07-29T07:14:14.862Z,25.46
2023-07-29T07:15:17.650Z,25.51
2023-07-29T07:16:20.579Z,25.51
2023-07-29T07:17:23.450Z,25.48
2023-07-29T07:18:26.445Z,25.37
2023-07-29T07:19:29.108Z,25.54
2023-07-29T07:20:31.876Z,25.58
2023-07-29T07:21:34.645Z,25.55
2023-07-29T07:22:37.442Z,25.62
2023-07-29T07:23:40.905Z,25.63
2023-07-29T07:24:43.739Z,25.57
2023-07-29T07:25:46.593Z,25.49
2023-07-29T07:26:50.107Z,25.36
2023-07-29T07:27:52.837Z,25.33
2023-07-29T07:28:55.551Z,25.30
2023-07-29T07:29:58.338Z,25.32
2023-07-29T07:31:00.959Z,25.29
2023-07-29T07:32:03.888Z,25.34
2023-07-29T07:33:06.608Z,25.39
2023-07-29T07:34:09.567Z,25.42
2023-07-29T07:35:12.247Z,25.50
2023-07-29T07:36:15.143Z,25.57
2023-07-29T07:37:17.876Z,25.55
2023-07-29T07:38:20.628Z,25.59
2023-07-29T07:39:23.369Z,25.61
2023-07-29T07:40:26.497Z,25.63
2023-07-29T07:41:29.245Z,25.71
2023-07-29T07:42:31.917Z,25.61
2023-07-29T07:43:34.638Z,25.56
2023-07-29T07:44:37.367Z,25.47
2023-07-29T07:45:40.063Z,25.41
2023-07-29T07:46:43.369Z,25.33
2023-07-29T07:47:46.435Z,25.45
2023-07-29T07:48:49.169Z,25.43
2023-07-29T07:49:52.457Z,25.49
2023-07-29T07:50:55.306Z,25.55
2023-07-29T07:51:58.135Z,25.57
2023-07-29T07:53:00.982Z,25.65
2023-07-29T07:54:03.824Z,25.62
2023-07-29T07:55:07.275Z,25.75
2023-07-29T07:56:09.907Z,25.84
2023-07-29T07:57:15.303Z,25.93
2023-07-29T07:58:18.161Z,25.96
2023-07-29T07:59:21.063Z,26.12
2023-07-29T08:00:23.975Z,26.18
2023-07-29T08:01:26.978Z,26.26
2023-07-29T08:02:29.914Z,26.38
2023-07-29T08:03:33.003Z,26.50
2023-07-29T08:04:35.882Z,26.58
2023-07-29T08:05:38.671Z,26.71
2023-07-29T08:06:41.475Z,26.83
2023-07-29T08:07:47.219Z,26.99
2023-07-29T08:08:49.899Z,27.11
2023-07-29T08:09:52.845Z,27.28
2023-07-29T08:10:57.477Z,27.46
2023-07-29T08:12:00.330Z,27.53
2023-07-29T08:13:03.106Z,27.33
2023-07-29T08:14:05.774Z,27.26
2023-07-29T08:15:08.751Z,27.21
2023-07-29T08:16:11.494Z,27.10
2023-07-29T08:17:14.302Z,27.19
2023-07-29T08:18:18.110Z,27.26
2023-07-29T08:19:22.767Z,27.17
2023-07-29T08:20:25.838Z,27.21
2023-07-29T08:21:28.917Z,27.25
2023-07-29T08:22:31.800Z,27.42
2023-07-29T08:23:36.749Z,27.42
2023-07-29T08:24:39.580Z,27.42
2023-07-29T08:25:42.398Z,27.46
2023-07-29T08:26:45.205Z,27.55
2023-07-29T08:27:47.888Z,27.70
2023-07-29T08:28:53.155Z,27.82
2023-07-29T08:29:58.734Z,27.98
2023-07-29T08:31:02.148Z,28.09
2023-07-29T08:32:05.212Z,28.37
2023-07-29T08:33:08.266Z,28.42
2023-07-29T08:34:11.122Z,28.40
2023-07-29T08:35:13.966Z,28.52
2023-07-29T08:36:17.009Z,28.57
2023-07-29T08:37:19.744Z,28.74
2023-07-29T08:38:22.730Z,28.96
2023-07-29T08:39:25.409Z,29.04
2023-07-29T08:40:31.275Z,29.18
2023-07-29T08:41:55.312Z,29.25
2023-07-29T08:43:00.733Z,29.22
2023-07-29T08:44:13.544Z,29.16
2023-07-29T08:45:18.532Z,29.16
2023-07-29T08:46:21.774Z,29.14
2023-07-29T08:47:24.646Z,29.02
2023-07-29T08:48:41.322Z,28.88
2023-07-29T08:49:46.694Z,28.94
2023-07-29T08:50:51.166Z,29.09
2023-07-29T08:51:55.387Z,29.08
2023-07-29T08:52:59.463Z,28.98
2023-07-29T08:54:02.875Z,28.96
2023-07-29T08:55:06.396Z,29.08
2023-07-29T08:56:09.818Z,29.13
2023-07-29T08:57:12.541Z,29.15
2023-07-29T08:58:15.715Z,29.09
2023-07-29T08:59:19.212Z,29.09
2023-07-29T09:00:22.560Z,29.16
2023-07-29T09:01:25.371Z,29.21
2023-07-29T09:02:28.500Z,29.28
2023-07-29T09:03:31.676Z,29.39
2023-07-29T09:04:34.648Z,29.39
2023-07-29T09:05:37.439Z,29.37
2023-07-29T09:06:41.258Z,29.54
2023-07-29T09:07:46.868Z,29.77
2023-07-29T09:08:52.522Z,29.77
2023-07-29T09:09:55.215Z,29.71
2023-07-29T09:10:58.127Z,29.78
2023-07-29T09:12:00.810Z,29.87
2023-07-29T09:13:04.482Z,29.70
2023-07-29T09:14:07.259Z,29.79
2023-07-29T09:15:10.458Z,29.79
2023-07-29T09:16:13.706Z,29.76
2023-07-29T09:17:16.599Z,29.59
2023-07-29T09:18:23.318Z,29.60
2023-07-29T09:19:27.845Z,29.58
2023-07-29T09:20:30.853Z,29.46
2023-07-29T09:21:33.874Z,29.35
2023-07-29T09:22:36.779Z,29.51
2023-07-29T09:23:43.539Z,29.61
2023-07-29T09:24:47.576Z,29.66
2023-07-29T09:25:50.262Z,29.75
2023-07-29T09:26:55.518Z,29.92
2023-07-29T09:28:02.154Z,29.79
2023-07-29T09:29:05.342Z,29.88
2023-07-29T09:30:16.530Z,29.93
2023-07-29T09:31:24.786Z,29.79
2023-07-29T09:32:28.086Z,29.77
2023-07-29T09:33:36.524Z,29.66
2023-07-29T09:34:43.049Z,29.80
2023-07-29T09:35:45.878Z,29.88
2023-07-29T09:36:52.031Z,30.00
2023-07-29T09:37:54.831Z,30.03
2023-07-29T09:38:58.084Z,30.18
2023-07-29T09:40:00.902Z,30.46
2023-07-29T09:41:03.885Z,30.52
2023-07-29T09:42:06.980Z,30.64
2023-07-29T09:43:10.973Z,30.83
2023-07-29T09:44:13.608Z,30.95
2023-07-29T09:45:26.848Z,30.94
2023-07-29T09:46:40.169Z,30.88
2023-07-29T09:47:48.162Z,30.71
2023-07-29T09:48:52.247Z,30.49
2023-07-29T09:49:55.145Z,30.44
2023-07-29T09:50:59.267Z,30.46
2023-07-29T09:52:04.792Z,30.31
2023-07-29T09:53:08.731Z,30.46
2023-07-29T09:54:13.796Z,30.49
2023-07-29T09:55:20.471Z,30.57
2023-07-29T09:56:27.994Z,30.64
2023-07-29T09:57:31.394Z,30.75
2023-07-29T09:58:34.885Z,30.83
2023-07-29T09:59:37.695Z,30.82
2023-07-29T10:00:41.349Z,30.65
2023-07-29T10:01:44.416Z,30.71
2023-07-29T10:02:47.509Z,30.68
2023-07-29T10:03:53.028Z,30.63
2023-07-29T10:04:58.885Z,30.59
2023-07-29T10:06:05.286Z,30.82
2023-07-29T10:07:10.927Z,30.96
2023-07-29T10:08:16.142Z,31.03
2023-07-29T10:09:22.820Z,31.12
2023-07-29T10:10:29.133Z,31.23
2023-07-29T10:11:33.856Z,31.37
2023-07-29T10:12:36.923Z,31.54
2023-07-29T10:13:40.118Z,31.64
2023-07-29T10:14:44.210Z,31.75
2023-07-29T10:15:47.896Z,31.69
2023-07-29T10:16:51.766Z,31.56
2023-07-29T10:17:55.546Z,31.50
2023-07-29T10:18:59.208Z,31.34
2023-07-29T10:20:02.416Z,31.30
2023-07-29T10:21:07.201Z,31.11
2023-07-29T10:22:13.263Z,30.93
2023-07-29T10:23:19.031Z,30.88
2023-07-29T10:24:30.808Z,30.88
2023-07-29T10:25:43.738Z,30.88
2023-07-29T10:26:50.711Z,30.99
2023-07-29T10:27:55.919Z,31.04
2023-07-29T10:29:06.350Z,31.06
2023-07-29T10:30:11.827Z,31.18
2023-07-29T10:31:18.083Z,31.06
2023-07-29T10:32:23.558Z,31.11
2023-07-29T10:33:29.513Z,31.09
2023-07-29T10:34:33.672Z,31.04
2023-07-29T10:35:37.268Z,30.77
2023-07-29T10:36:40.799Z,30.65
2023-07-29T10:37:44.177Z,30.70
2023-07-29T10:38:47.283Z,30.64
2023-07-29T10:39:55.405Z,30.72
2023-07-29T10:41:01.299Z,30.76
2023-07-29T10:42:07.438Z,30.77
2023-07-29T10:43:13.845Z,30.89
2023-07-29T10:44:43.314Z,30.79
2023-07-29T10:45:46.066Z,30.79
2023-07-29T10:46:48.809Z,30.73
2023-07-29T10:47:51.522Z,30.56
2023-07-29T10:48:56.590Z,30.51
2023-07-29T10:50:00.941Z,30.40
2023-07-29T10:51:35.338Z,30.34
2023-07-29T10:52:37.938Z,30.45
2023-07-29T10:53:40.609Z,30.63
2023-07-29T10:54:49.967Z,30.92
2023-07-29T10:55:53.021Z,31.08
2023-07-29T10:57:00.285Z,31.43
2023-07-29T10:58:12.713Z,31.71
2023-07-29T10:59:18.615Z,32.09
2023-07-29T11:00:24.830Z,32.44
2023-07-29T11:01:33.452Z,32.50
2023-07-29T11:02:37.836Z,32.47
2023-07-29T11:03:40.745Z,32.62
2023-07-29T11:04:52.315Z,32.58
2023-07-29T11:05:55.716Z,32.74
2023-07-29T11:07:19.243Z,32.57
2023-07-29T11:08:23.201Z,32.51
2023-07-29T11:09:42.603Z,32.51
2023-07-29T11:10:45.782Z,32.82
2023-07-29T11:11:51.567Z,32.83
2023-07-29T11:12:55.574Z,32.61
2023-07-29T11:14:01.204Z,32.49
2023-07-29T11:15:11.669Z,32.79
2023-07-29T11:16:18.272Z,32.85
2023-07-29T11:17:21.438Z,32.75
2023-07-29T11:18:26.030Z,32.78
2023-07-29T11:19:28.895Z,32.71
2023-07-29T11:20:33.914Z,32.78
2023-07-29T11:21:37.732Z,32.69
2023-07-29T11:22:40.761Z,32.31
2023-07-29T11:23:43.485Z,31.68
2023-07-29T11:24:46.108Z,31.56
2023-07-29T11:25:49.089Z,31.75
2023-07-29T11:26:51.751Z,31.90
2023-07-29T11:27:58.615Z,32.18
2023-07-29T11:29:01.970Z,32.24
2023-07-29T11:30:07.077Z,32.22
2023-07-29T11:31:10.021Z,32.25
2023-07-29T11:32:12.996Z,32.49
2023-07-29T11:33:15.787Z,32.61
2023-07-29T11:34:22.249Z,32.95
2023-07-29T11:35:25.481Z,33.16
2023-07-29T11:36:28.160Z,32.86
2023-07-29T11:37:31.036Z,32.49
2023-07-29T11:38:38.302Z,32.03
2023-07-29T11:39:45.508Z,31.90
2023-07-29T11:40:58.348Z,31.98
2023-07-29T11:42:00.943Z,32.37
2023-07-29T11:43:03.660Z,32.33
2023-07-29T11:44:11.367Z,32.26
2023-07-29T11:45:17.926Z,32.38
2023-07-29T11:46:23.583Z,32.38
2023-07-29T11:47:26.458Z,32.48
2023-07-29T11:48:34.360Z,32.49
2023-07-29T11:49:39.497Z,32.47
2023-07-29T11:50:42.511Z,32.56
2023-07-29T11:51:45.243Z,32.63
2023-07-29T11:52:48.150Z,32.73
2023-07-29T11:53:50.864Z,32.69
2023-07-29T11:54:54.563Z,32.53
2023-07-29T11:55:57.686Z,32.53
2023-07-29T11:57:00.572Z,32.70
2023-07-29T11:58:04.429Z,32.88
2023-07-29T11:59:08.038Z,32.79
2023-07-29T12:00:13.776Z,32.69
2023-07-29T12:01:16.924Z,32.85
2023-07-29T12:02:21.460Z,33.02
2023-07-29T12:03:24.866Z,33.16
2023-07-29T12:04:28.142Z,33.25
2023-07-29T12:05:31.547Z,33.24
2023-07-29T12:06:34.655Z,33.25
2023-07-29T12:07:40.300Z,33.26
2023-07-29T12:08:44.543Z,33.28
2023-07-29T12:09:48.635Z,33.47
2023-07-29T12:10:51.442Z,33.57
2023-07-29T12:11:54.646Z,33.68
2023-07-29T12:12:57.306Z,33.57
2023-07-29T12:14:01.580Z,33.36
2023-07-29T12:15:04.524Z,33.22
2023-07-29T12:16:07.614Z,33.44
2023-07-29T12:17:10.833Z,33.54
2023-07-29T12:18:13.869Z,33.34
2023-07-29T12:19:16.980Z,33.49
2023-07-29T12:20:21.562Z,33.70
2023-07-29T12:21:24.279Z,33.79
2023-07-29T12:22:27.067Z,33.53
2023-07-29T12:23:30.858Z,33.43
2023-07-29T12:24:36.950Z,33.58
2023-07-29T12:25:39.558Z,33.43
2023-07-29T12:26:43.320Z,33.38
2023-07-29T12:27:46.087Z,33.47
2023-07-29T12:28:49.211Z,33.46
2023-07-29T12:29:54.713Z,33.09
2023-07-29T12:30:58.666Z,32.69
2023-07-29T12:32:05.220Z,32.75
2023-07-29T12:33:08.002Z,32.53
2023-07-29T12:34:10.806Z,32.54
2023-07-29T12:35:14.216Z,32.56
2023-07-29T12:36:18.256Z,32.96
2023-07-29T12:37:20.985Z,33.30
2023-07-29T12:38:23.976Z,33.27
2023-07-29T12:39:32.551Z,33.30
2023-07-29T12:40:39.973Z,33.53
2023-07-29T12:41:42.714Z,33.47
2023-07-29T12:42:45.676Z,33.33
2023-07-29T12:43:48.322Z,33.12
2023-07-29T12:44:51.010Z,33.03
2023-07-29T12:45:53.809Z,32.92
2023-07-29T12:46:56.679Z,32.43
2023-07-29T12:47:59.625Z,32.00
2023-07-29T12:49:02.970Z,31.89
2023-07-29T12:50:06.150Z,31.68
2023-07-29T12:51:09.143Z,31.84
2023-07-29T12:52:11.848Z,32.13
2023-07-29T12:53:14.684Z,32.40
2023-07-29T12:54:17.347Z,32.55
2023-07-29T12:55:23.301Z,32.53
2023-07-29T12:56:26.527Z,32.54
2023-07-29T12:57:29.317Z,32.68
2023-07-29T12:58:31.996Z,32.77
2023-07-29T12:59:34.650Z,32.92
2023-07-29T13:00:37.406Z,33.05
2023-07-29T13:01:40.010Z,33.24
2023-07-29T13:02:42.790Z,33.36
2023-07-29T13:03:50.080Z,33.34
2023-07-29T13:04:52.731Z,33.59
2023-07-29T13:05:55.439Z,33.68
2023-07-29T13:07:00.927Z,33.80
2023-07-29T13:08:03.648Z,33.74
2023-07-29T13:09:06.981Z,33.86
2023-07-29T13:10:10.866Z,33.88
2023-07-29T13:11:13.928Z,34.14
2023-07-29T13:12:16.701Z,33.88
2023-07-29T13:13:19.573Z,33.17
2023-07-29T13:14:22.325Z,32.60
2023-07-29T13:15:25.116Z,32.43
2023-07-29T13:16:29.381Z,32.17
2023-07-29T13:17:32.194Z,31.78
2023-07-29T13:18:35.385Z,31.44
2023-07-29T13:19:38.051Z,31.07
2023-07-29T13:20:40.934Z,30.89
2023-07-29T13:21:43.723Z,30.77
2023-07-29T13:22:46.448Z,30.59
2023-07-29T13:23:49.285Z,30.72
2023-07-29T13:24:52.130Z,31.10
2023-07-29T13:25:57.777Z,31.44
2023-07-29T13:27:00.417Z,31.63
2023-07-29T13:28:03.410Z,31.80
2023-07-29T13:29:08.842Z,31.86
2023-07-29T13:30:12.589Z,32.13
2023-07-29T13:31:15.286Z,32.18
2023-07-29T13:32:17.893Z,32.15
2023-07-29T13:33:20.545Z,32.05
2023-07-29T13:34:23.399Z,31.76
2023-07-29T13:35:26.779Z,31.45
2023-07-29T13:36:29.513Z,31.26
2023-07-29T13:37:32.085Z,31.22
2023-07-29T13:38:34.778Z,31.41
2023-07-29T13:39:37.463Z,31.49
2023-07-29T13:40:40.286Z,31.76
2023-07-29T13:41:43.228Z,32.03
2023-07-29T13:42:45.930Z,32.21
2023-07-29T13:43:48.700Z,32.39
2023-07-29T13:44:51.387Z,32.55
2023-07-29T13:45:54.215Z,32.63